createdAt,value
2022-10-17T00:01:07.306Z,9.50
2022-10-17T00:03:36.142Z,10.27
2022-10-17T00:06:10.282Z,13.23
2022-10-17T00:08:37.979Z,11.13
2022-10-17T00:11:09.214Z,12.20
2022-10-17T00:13:36.323Z,11.03
2022-10-17T00:16:03.572Z,11.93
2022-10-17T00:18:30.269Z,14.47
2022-10-17T00:20:57.306Z,10.73
2022-10-17T00:23:24.265Z,9.77
2022-10-17T00:26:06.038Z,13.63
2022-10-17T00:28:33.099Z,20.97
2022-10-17T00:31:02.526Z,18.60
2022-10-17T00:33:29.918Z,11.13
2022-10-17T00:36:14.588Z,14.30
2022-10-17T00:38:43.795Z,12.43
2022-10-17T00:41:12.684Z,11.67
2022-10-17T00:44:17.042Z,9.07
2022-10-17T00:46:43.750Z,9.33
2022-10-17T00:49:12.536Z,7.40
2022-10-17T00:51:49.325Z,9.77
2022-10-17T00:54:19.229Z,6.97
2022-10-17T00:56:48.481Z,7.30
2022-10-17T00:59:17.781Z,6.57
2022-10-17T01:01:54.059Z,9.17
2022-10-17T01:04:21.419Z,9.97
2022-10-17T01:06:48.065Z,9.43
2022-10-17T01:09:14.757Z,8.50
2022-10-17T01:11:59.951Z,6.90
2022-10-17T01:15:04.240Z,6.13
2022-10-17T01:17:55.641Z,7.33
2022-10-17T01:20:37.526Z,7.47
2022-10-17T01:23:29.009Z,9.07
2022-10-17T01:26:33.122Z,9.13
2022-10-17T01:29:41.904Z,9.53
2022-10-17T01:32:29.791Z,15.23
2022-10-17T01:35:04.206Z,9.00
2022-10-17T01:37:33.205Z,9.87
2022-10-17T01:40:05.978Z,8.47
2022-10-17T01:42:32.617Z,8.93
2022-10-17T01:45:10.699Z,8.40
2022-10-17T01:47:38.628Z,6.97
2022-10-17T01:50:16.955Z,7.33
2022-10-17T01:52:48.803Z,6.63
2022-10-17T01:55:20.557Z,8.50
2022-10-17T01:57:52.014Z,11.30
2022-10-17T02:00:24.824Z,9.63
2022-10-17T02:02:57.398Z,8.23
2022-10-17T02:05:30.914Z,6.83
2022-10-17T02:07:57.655Z,7.60
2022-10-17T02:11:06.245Z,13.97
2022-10-17T02:13:38.806Z,27.63
2022-10-17T02:16:18.922Z,19.67
2022-10-17T02:19:22.965Z,12.23
2022-10-17T02:22:01.798Z,11.80
2022-10-17T02:24:49.600Z,7.03
2022-10-17T02:27:28.731Z,6.40
2022-10-17T02:30:24.685Z,5.90
2022-10-17T02:33:20.529Z,5.30
2022-10-17T02:35:54.015Z,6.83
2022-10-17T02:38:23.275Z,5.40
2022-10-17T02:40:52.327Z,6.63
2022-10-17T02:43:20.818Z,5.63
2022-10-17T02:45:48.160Z,7.57
2022-10-17T02:48:33.022Z,7.07
2022-10-17T02:51:16.130Z,7.15
2022-10-17T02:53:45.839Z,11.53
2022-10-17T02:56:18.947Z,9.63
2022-10-17T02:58:54.843Z,9.07
2022-10-17T03:01:22.125Z,8.70
2022-10-17T03:03:48.871Z,8.43
2022-10-17T03:06:15.954Z,8.03
2022-10-17T03:08:42.630Z,7.90
2022-10-17T03:11:09.305Z,7.07
2022-10-17T03:13:39.051Z,6.27
2022-10-17T03:16:06.766Z,10.53
2022-10-17T03:18:33.451Z,9.97
2022-10-17T03:21:00.130Z,15.40
2022-10-17T03:23:26.789Z,10.43
2022-10-17T03:25:53.649Z,10.43
2022-10-17T03:28:20.251Z,8.97
2022-10-17T03:30:46.877Z,12.07
2022-10-17T03:33:13.570Z,12.37
2022-10-17T03:35:40.768Z,14.03
2022-10-17T03:38:07.454Z,23.63
2022-10-17T03:40:34.113Z,28.63
2022-10-17T03:43:00.801Z,11.43
2022-10-17T03:45:27.959Z,19.83
2022-10-17T03:47:54.562Z,11.07
2022-10-17T03:50:21.242Z,12.63
2022-10-17T03:52:49.195Z,12.33
2022-10-17T03:55:16.954Z,7.90
2022-10-17T03:57:45.558Z,16.67
2022-10-17T04:00:13.010Z,19.33
2022-10-17T04:02:39.692Z,10.13
2022-10-17T04:05:07.003Z,9.37
2022-10-17T04:07:33.672Z,19.57
2022-10-17T04:10:00.592Z,24.43
2022-10-17T04:12:27.544Z,90.73
2022-10-17T04:14:54.692Z,94.33
2022-10-17T04:17:21.527Z,49.10
2022-10-17T04:19:49.702Z,37.67
2022-10-17T04:22:16.467Z,36.87
2022-10-17T04:24:43.159Z,34.13
2022-10-17T04:27:09.800Z,20.00
2022-10-17T04:29:36.486Z,20.03
2022-10-17T04:32:03.412Z,34.60
2022-10-17T04:34:30.120Z,29.67
2022-10-17T04:36:56.758Z,18.47
2022-10-17T04:39:23.509Z,21.47
2022-10-17T04:41:50.226Z,16.30
2022-10-17T04:44:16.870Z,18.57
2022-10-17T04:46:44.220Z,21.00
2022-10-17T04:49:10.906Z,17.47
2022-10-17T04:51:38.530Z,19.37
2022-10-17T04:54:05.394Z,14.73
2022-10-17T04:56:32.063Z,14.27
2022-10-17T04:59:00.066Z,19.33
2022-10-17T05:01:27.238Z,20.90
2022-10-17T05:03:54.259Z,18.67
2022-10-17T05:06:23.629Z,18.90
2022-10-17T05:08:50.881Z,20.00
2022-10-17T05:11:28.724Z,20.47
2022-10-17T05:14:00.672Z,16.83
2022-10-17T05:16:28.703Z,19.73
2022-10-17T05:18:57.517Z,20.87
2022-10-17T05:21:27.071Z,18.93
2022-10-17T05:23:54.400Z,24.53
2022-10-17T05:26:22.165Z,23.90
2022-10-17T05:28:48.988Z,25.37
2022-10-17T05:31:15.757Z,24.80
2022-10-17T05:33:42.447Z,27.03
2022-10-17T05:36:09.212Z,38.00
2022-10-17T05:38:35.986Z,31.63
2022-10-17T05:41:05.080Z,31.43
2022-10-17T05:43:33.345Z,29.13
2022-10-17T05:46:04.245Z,27.23
2022-10-17T05:48:30.914Z,27.23
2022-10-17T05:50:59.592Z,27.70
2022-10-17T05:53:26.942Z,28.23
2022-10-17T05:55:58.880Z,28.53
2022-10-17T05:58:45.565Z,28.17
2022-10-17T06:01:13.969Z,25.30
2022-10-17T06:03:40.723Z,28.27
2022-10-17T06:06:10.250Z,27.55
2022-10-17T06:08:37.412Z,26.55
2022-10-17T06:11:09.086Z,24.58
2022-10-17T06:13:37.196Z,21.05
2022-10-17T06:16:03.975Z,21.08
2022-10-17T06:18:30.730Z,21.17
2022-10-17T06:21:08.767Z,22.17
2022-10-17T06:23:35.463Z,20.23
2022-10-17T06:26:04.235Z,17.58
2022-10-17T06:28:31.156Z,16.25
2022-10-17T06:30:57.970Z,15.00
2022-10-17T06:33:24.817Z,16.92
2022-10-17T06:35:55.838Z,17.65
2022-10-17T06:38:22.595Z,17.13
2022-10-17T06:40:49.493Z,16.75
2022-10-17T06:43:16.210Z,34.08
2022-10-17T06:45:42.856Z,18.67
2022-10-17T06:48:09.559Z,17.65
2022-10-17T06:50:36.253Z,17.13
2022-10-17T06:53:03.540Z,17.42
2022-10-17T06:55:31.606Z,17.33
2022-10-17T06:57:58.356Z,16.50
2022-10-17T07:00:26.941Z,16.20
2022-10-17T07:02:53.736Z,11.90
2022-10-17T07:05:20.431Z,10.43
2022-10-17T07:07:49.706Z,6.97
2022-10-17T07:10:18.461Z,9.32
2022-10-17T07:12:45.921Z,10.80
2022-10-17T07:15:13.211Z,15.77
2022-10-17T07:17:40.165Z,9.40
2022-10-17T07:20:07.946Z,6.47
2022-10-17T07:22:34.568Z,3.22
2022-10-17T07:25:01.788Z,4.85
2022-10-17T07:27:29.104Z,5.03
2022-10-17T07:29:55.997Z,4.32
2022-10-17T07:32:22.708Z,3.80
2022-10-17T07:34:49.332Z,7.80
2022-10-17T07:37:16.099Z,3.00
2022-10-17T07:39:42.748Z,2.58
2022-10-17T07:42:10.316Z,2.80
2022-10-17T07:44:37.027Z,2.08
2022-10-17T07:47:04.392Z,1.67
2022-10-17T07:49:31.408Z,3.58
2022-10-17T07:51:58.119Z,2.65
2022-10-17T07:54:24.845Z,2.35
2022-10-17T07:56:51.547Z,2.53
2022-10-17T07:59:19.247Z,2.10
2022-10-17T08:01:45.980Z,1.80
2022-10-17T08:04:12.828Z,2.00
2022-10-17T08:06:39.506Z,2.40
2022-10-17T08:09:06.683Z,2.38
2022-10-17T08:11:33.434Z,1.90
2022-10-17T08:14:00.088Z,3.20
2022-10-17T08:16:26.835Z,2.40
2022-10-17T08:18:53.890Z,2.05
2022-10-17T08:21:20.584Z,2.20
2022-10-17T08:23:47.293Z,1.80
2022-10-17T08:26:17.392Z,2.10
2022-10-17T08:28:44.439Z,2.00
2022-10-17T08:31:13.650Z,2.20
2022-10-17T08:33:41.842Z,1.65
2022-10-17T08:36:09.728Z,1.85
2022-10-17T08:38:40.369Z,1.90
2022-10-17T08:41:34.829Z,1.95
2022-10-17T08:44:05.635Z,1.80
2022-10-17T08:46:37.781Z,2.53
2022-10-17T08:49:12.098Z,2.38
2022-10-17T08:51:47.990Z,2.42
2022-10-17T08:54:24.339Z,2.40
2022-10-17T08:56:54.807Z,4.10
2022-10-17T08:59:29.864Z,3.42
2022-10-17T09:02:18.204Z,6.20
2022-10-17T09:05:26.807Z,2.85
2022-10-17T09:08:16.609Z,2.50
2022-10-17T09:11:01.159Z,2.30
2022-10-17T09:13:45.553Z,2.20
2022-10-17T09:16:23.452Z,2.33
2022-10-17T09:19:07.317Z,1.73
2022-10-17T09:21:44.528Z,1.90
2022-10-17T09:24:46.309Z,2.28
2022-10-17T09:27:39.395Z,1.73
2022-10-17T09:30:46.419Z,1.55
2022-10-17T09:36:24.618Z,1.70
2022-10-17T09:38:58.672Z,2.10
2022-10-17T09:41:46.781Z,1.95
2022-10-17T09:44:41.391Z,1.60
2022-10-17T09:47:39.430Z,1.60
2022-10-17T09:50:20.786Z,1.95
2022-10-17T09:52:50.699Z,1.70
2022-10-17T09:55:21.668Z,1.63
2022-10-17T09:58:08.363Z,1.63
2022-10-17T10:00:41.808Z,1.70
2022-10-17T10:03:19.963Z,1.75
2022-10-17T10:06:06.293Z,2.33
2022-10-17T10:08:36.536Z,17.25
2022-10-17T10:11:13.380Z,1.70
2022-10-17T10:13:41.036Z,1.42
2022-10-17T10:16:17.079Z,1.67
2022-10-17T10:18:47.418Z,1.35
2022-10-17T10:21:22.394Z,1.50
2022-10-17T10:24:10.818Z,1.40
2022-10-17T10:26:47.713Z,1.40
2022-10-17T10:29:26.780Z,1.50
2022-10-17T10:34:47.506Z,1.50
2022-10-17T10:37:38.748Z,1.30
2022-10-17T10:40:44.622Z,1.60
2022-10-17T10:43:42.209Z,1.58
2022-10-17T10:46:29.933Z,1.42
2022-10-17T10:49:00.351Z,1.30
2022-10-17T10:51:45.028Z,1.45
2022-10-17T10:54:18.005Z,1.30
2022-10-17T10:56:53.555Z,1.42
2022-10-17T10:59:33.311Z,1.50
2022-10-17T11:02:18.033Z,2.53
2022-10-17T11:04:52.831Z,1.83
2022-10-17T11:07:26.525Z,1.60
2022-10-17T11:10:12.274Z,1.73
2022-10-17T11:12:38.930Z,3.75
2022-10-17T11:15:25.798Z,5.63
2022-10-17T11:17:59.238Z,1.48
2022-10-17T11:20:58.280Z,1.50
2022-10-17T11:23:34.318Z,1.70
2022-10-17T11:26:07.853Z,1.42
2022-10-17T11:28:34.708Z,1.23
2022-10-17T11:31:07.968Z,1.83
2022-10-17T11:33:59.819Z,1.25
2022-10-17T11:36:30.819Z,1.50
2022-10-17T11:39:03.752Z,3.30
2022-10-17T11:41:43.822Z,2.13
2022-10-17T11:44:29.903Z,2.00
2022-10-17T11:47:01.869Z,1.70
2022-10-17T11:49:38.196Z,1.60
2022-10-17T11:52:51.738Z,1.48
2022-10-17T11:55:27.467Z,1.75
2022-10-17T11:58:33.106Z,1.48
2022-10-17T12:01:05.797Z,1.42
2022-10-17T12:03:49.649Z,1.55
2022-10-17T12:06:16.317Z,1.40
2022-10-17T12:09:02.659Z,1.83
2022-10-17T12:11:41.113Z,1.42
2022-10-17T12:14:39.063Z,1.40
2022-10-17T12:17:23.931Z,1.10
2022-10-17T12:19:50.682Z,1.30
2022-10-17T12:22:21.833Z,1.60
2022-10-17T12:25:04.538Z,1.50
2022-10-17T12:27:46.071Z,3.35
2022-10-17T12:30:12.820Z,2.70
2022-10-17T12:33:05.623Z,1.73
2022-10-17T12:35:35.947Z,1.48
2022-10-17T12:38:19.372Z,1.38
2022-10-17T12:40:50.615Z,1.40
2022-10-17T12:43:17.207Z,1.85
2022-10-17T12:45:53.921Z,2.05
2022-10-17T12:48:40.474Z,1.50
2022-10-17T12:51:34.226Z,1.80
2022-10-17T12:54:15.105Z,1.27
2022-10-17T12:56:47.832Z,1.48
2022-10-17T12:59:16.740Z,2.00
2022-10-17T13:01:51.735Z,2.10
2022-10-17T13:06:54.588Z,1.50
2022-10-17T13:09:35.386Z,2.10
2022-10-17T13:12:05.093Z,1.90
2022-10-17T13:14:34.046Z,1.50
2022-10-17T13:17:03.721Z,1.98
2022-10-17T13:19:39.812Z,0.93
2022-10-17T13:22:18.289Z,1.63
2022-10-17T13:24:45.720Z,1.50
2022-10-17T13:27:26.879Z,2.20
2022-10-17T13:29:56.835Z,1.73
2022-10-17T13:32:25.512Z,1.50
2022-10-17T13:35:07.274Z,1.90
2022-10-17T13:37:35.453Z,1.75
2022-10-17T13:40:17.543Z,1.67
2022-10-17T13:42:51.152Z,1.23
2022-10-17T13:45:24.495Z,1.20
2022-10-17T13:47:51.365Z,1.17
2022-10-17T13:50:44.283Z,0.70
2022-10-17T13:53:31.478Z,0.80
2022-10-17T13:56:23.239Z,1.85
2022-10-17T13:58:52.832Z,0.80
2022-10-17T14:01:21.313Z,1.00
2022-10-17T14:03:51.799Z,0.70
2022-10-17T14:06:25.212Z,0.80
2022-10-17T14:09:05.446Z,1.10
2022-10-17T14:11:44.220Z,0.95
2022-10-17T14:14:23.648Z,1.73
2022-10-17T14:16:50.386Z,2.30
2022-10-17T14:19:28.904Z,1.98
2022-10-17T14:22:14.118Z,1.60
2022-10-17T14:24:42.323Z,2.88
2022-10-17T14:27:27.464Z,1.50
2022-10-17T14:29:56.129Z,1.20
2022-10-17T14:32:22.872Z,2.70
2022-10-17T14:34:58.356Z,3.00
2022-10-17T14:37:45.000Z,3.05
2022-10-17T14:40:20.862Z,4.68
2022-10-17T14:42:48.418Z,3.35
2022-10-17T14:45:23.784Z,3.08
2022-10-17T14:47:52.864Z,2.65
2022-10-17T14:50:28.485Z,2.40
2022-10-17T14:53:10.270Z,5.03
2022-10-17T14:55:38.727Z,3.47
2022-10-17T14:58:22.759Z,2.90
2022-10-17T15:00:49.409Z,2.88
2022-10-17T15:03:19.223Z,4.63
2022-10-17T15:05:50.011Z,5.32
2022-10-17T15:08:18.544Z,4.20
2022-10-17T15:10:46.834Z,5.57
2022-10-17T15:13:27.699Z,7.00
2022-10-17T15:15:55.207Z,6.65
2022-10-17T15:18:21.886Z,7.55
2022-10-17T15:20:55.251Z,26.42
2022-10-17T15:23:31.447Z,23.15
2022-10-17T15:25:58.081Z,27.40
2022-10-17T15:28:24.774Z,25.10
2022-10-17T15:30:51.514Z,24.85
2022-10-17T15:33:18.249Z,16.58
2022-10-17T15:35:45.082Z,10.93
2022-10-17T15:38:17.139Z,10.23
2022-10-17T15:40:43.828Z,14.60
2022-10-17T15:43:10.507Z,44.92
2022-10-17T15:45:37.902Z,35.05
2022-10-17T15:48:07.388Z,33.50
2022-10-17T15:50:34.558Z,24.67
2022-10-17T15:53:01.197Z,22.98
2022-10-17T15:55:28.052Z,33.80
2022-10-17T15:57:54.845Z,35.30
2022-10-17T16:00:23.774Z,35.60
2022-10-17T16:02:51.000Z,16.33
2022-10-17T16:05:23.454Z,13.88
2022-10-17T16:07:50.583Z,16.60
2022-10-17T16:10:17.787Z,17.77
2022-10-17T16:12:45.041Z,18.45
2022-10-17T16:15:23.528Z,15.80
2022-10-17T16:17:51.166Z,20.92
2022-10-17T16:20:18.498Z,24.25
2022-10-17T16:22:46.456Z,19.48
2022-10-17T16:25:21.220Z,23.73
2022-10-17T16:27:50.505Z,21.02
2022-10-17T16:30:17.773Z,13.77
2022-10-17T16:32:44.713Z,15.07
2022-10-17T16:35:19.054Z,18.05
2022-10-17T16:37:45.787Z,20.70
2022-10-17T16:40:12.492Z,22.95
2022-10-17T16:42:39.173Z,19.98
2022-10-17T16:45:06.407Z,16.95
2022-10-17T16:47:33.058Z,19.45
2022-10-17T16:49:59.901Z,21.00
2022-10-17T16:52:26.733Z,19.55
2022-10-17T16:54:53.495Z,21.00
2022-10-17T16:57:20.384Z,28.30
2022-10-17T16:59:47.002Z,22.60
2022-10-17T17:02:16.359Z,24.30
2022-10-17T17:04:45.723Z,24.20
2022-10-17T17:07:12.515Z,23.75
2022-10-17T17:09:39.879Z,24.08
2022-10-17T17:12:06.707Z,21.77
2022-10-17T17:14:33.340Z,21.10
2022-10-17T17:17:00.050Z,22.90
2022-10-17T17:19:26.727Z,25.38
2022-10-17T17:21:53.442Z,28.95
2022-10-17T17:24:21.595Z,30.25
2022-10-17T17:26:56.047Z,21.20
2022-10-17T17:29:24.847Z,19.63
2022-10-17T17:31:51.905Z,22.27
2022-10-17T17:34:18.666Z,20.58
2022-10-17T17:36:45.645Z,18.52
2022-10-17T17:39:13.996Z,19.38
2022-10-17T17:41:42.072Z,20.70
2022-10-17T17:44:13.970Z,16.85
2022-10-17T17:46:43.695Z,22.05
2022-10-17T17:49:11.632Z,20.90
2022-10-17T17:51:38.787Z,20.20
2022-10-17T17:54:05.508Z,18.52
2022-10-17T17:56:32.423Z,18.45
2022-10-17T17:59:02.941Z,17.35
2022-10-17T18:01:32.023Z,21.23
2022-10-17T18:03:59.420Z,29.80
2022-10-17T18:06:27.485Z,30.15
2022-10-17T18:08:57.977Z,32.15
2022-10-17T18:11:25.728Z,51.00
2022-10-17T18:14:05.374Z,19.35
2022-10-17T18:16:33.648Z,62.33
2022-10-17T18:19:06.741Z,38.20
2022-10-17T18:21:34.600Z,17.23
2022-10-17T18:24:01.808Z,12.55
2022-10-17T18:26:28.561Z,8.52
2022-10-17T18:28:55.302Z,12.05
2022-10-17T18:31:24.555Z,23.73
2022-10-17T18:33:53.020Z,39.75
2022-10-17T18:36:20.473Z,23.20
2022-10-17T18:38:47.175Z,23.02
2022-10-17T18:41:17.205Z,26.70
2022-10-17T18:43:45.659Z,25.50
2022-10-17T18:46:15.367Z,34.60
2022-10-17T18:48:44.664Z,20.77
2022-10-17T18:51:12.488Z,28.02
2022-10-17T18:53:41.283Z,18.35
2022-10-17T18:56:08.674Z,23.75
2022-10-17T18:58:37.422Z,21.50
2022-10-17T19:01:06.102Z,25.60
2022-10-17T19:03:32.920Z,24.92
2022-10-17T19:06:07.261Z,31.05
2022-10-17T19:08:35.173Z,30.33
2022-10-17T19:11:10.334Z,19.67
2022-10-17T19:13:37.015Z,29.30
2022-10-17T19:16:12.405Z,21.05
2022-10-17T19:18:39.465Z,31.40
2022-10-17T19:21:08.646Z,28.92
2022-10-17T19:23:36.437Z,30.27
2022-10-17T19:26:08.288Z,23.98
2022-10-17T19:28:36.786Z,17.88
2022-10-17T19:31:05.122Z,10.20
2022-10-17T19:33:32.915Z,16.25
2022-10-17T19:36:02.350Z,15.70
2022-10-17T19:38:29.494Z,15.73
2022-10-17T19:40:56.386Z,8.05
2022-10-17T19:43:23.491Z,7.22
2022-10-17T19:45:58.929Z,7.13
2022-10-17T19:48:26.599Z,12.57
2022-10-17T19:50:54.123Z,14.77
2022-10-17T19:53:23.345Z,16.90
2022-10-17T19:55:50.913Z,18.58
2022-10-17T19:58:17.586Z,18.90
2022-10-17T20:00:52.806Z,18.83
2022-10-17T20:03:19.416Z,15.82
2022-10-17T20:05:46.511Z,11.70
2022-10-17T20:08:14.036Z,11.93
2022-10-17T20:10:41.306Z,13.35
2022-10-17T20:13:08.264Z,19.23
2022-10-17T20:15:35.791Z,19.77
2022-10-17T20:18:03.100Z,20.25
2022-10-17T20:20:30.048Z,19.85
2022-10-17T20:22:56.829Z,18.45
2022-10-17T20:25:23.601Z,20.92
2022-10-17T20:27:50.267Z,20.48
2022-10-17T20:30:16.997Z,18.88
2022-10-17T20:32:43.710Z,22.70
2022-10-17T20:35:10.444Z,20.65
2022-10-17T20:37:41.632Z,26.67
2022-10-17T20:40:33.571Z,11.32
2022-10-17T20:42:56.613Z,9.32
2022-10-17T20:45:37.458Z,9.23
2022-10-17T20:48:15.290Z,9.98
2022-10-17T20:50:43.545Z,16.52
2022-10-17T20:53:35.482Z,22.75
2022-10-17T20:56:09.307Z,12.35
2022-10-17T20:58:36.210Z,14.52
2022-10-17T21:01:10.610Z,15.05
2022-10-17T21:03:42.380Z,14.07
2022-10-17T21:08:39.093Z,18.10
2022-10-17T21:11:17.734Z,16.77
2022-10-17T21:13:45.487Z,16.02
2022-10-17T21:16:14.920Z,20.52
2022-10-17T21:18:42.800Z,11.25
2022-10-17T21:21:15.658Z,9.82
2022-10-17T21:23:46.039Z,8.68
2022-10-17T21:26:17.287Z,8.75
2022-10-17T21:28:45.372Z,8.73
2022-10-17T21:31:22.694Z,9.38
2022-10-17T21:33:54.836Z,10.18
2022-10-17T21:36:22.385Z,11.40
2022-10-17T21:38:51.133Z,13.23
2022-10-17T21:41:19.699Z,14.35
2022-10-17T21:43:47.252Z,8.93
2022-10-17T21:46:17.154Z,10.55
2022-10-17T21:48:45.535Z,12.70
2022-10-17T21:51:14.947Z,15.68
2022-10-17T21:53:42.474Z,18.58
2022-10-17T21:56:18.079Z,16.55
2022-10-17T21:58:45.546Z,15.27
2022-10-17T22:01:24.326Z,13.63
2022-10-17T22:03:53.708Z,24.58
2022-10-17T22:06:39.223Z,14.60
2022-10-17T22:09:18.694Z,8.90
2022-10-17T22:11:50.817Z,10.45
2022-10-17T22:14:19.341Z,13.80
2022-10-17T22:16:47.230Z,18.38
2022-10-17T22:19:16.494Z,14.00
2022-10-17T22:21:43.142Z,11.05
2022-10-17T22:24:14.107Z,7.90
2022-10-17T22:26:42.145Z,7.82
2022-10-17T22:29:09.596Z,7.20
2022-10-17T22:31:37.255Z,7.00
2022-10-17T22:34:07.035Z,6.72
2022-10-17T22:36:34.805Z,6.97
2022-10-17T22:39:01.701Z,6.82
2022-10-17T22:41:28.387Z,7.35
2022-10-17T22:43:55.059Z,6.85
2022-10-17T22:46:22.015Z,7.33
2022-10-17T22:48:48.713Z,9.65
2022-10-17T22:51:15.929Z,8.82
2022-10-17T22:53:42.807Z,11.57
2022-10-17T22:56:12.069Z,9.48
2022-10-17T22:58:39.256Z,8.63
2022-10-17T23:01:07.958Z,8.05
2022-10-17T23:03:35.848Z,9.33
2022-10-17T23:06:03.184Z,8.77
2022-10-17T23:08:30.572Z,8.57
2022-10-17T23:10:57.561Z,7.55
2022-10-17T23:13:24.303Z,9.00
2022-10-17T23:15:55.764Z,8.00
2022-10-17T23:18:23.508Z,10.25
2022-10-17T23:20:50.359Z,8.25
2022-10-17T23:23:17.739Z,6.20
2022-10-17T23:25:44.602Z,7.97
2022-10-17T23:28:11.922Z,8.40
2022-10-17T23:30:39.317Z,8.07
2022-10-17T23:33:06.750Z,8.98
2022-10-17T23:35:33.914Z,9.48
2022-10-17T23:38:00.549Z,8.53
2022-10-17T23:40:28.136Z,6.72
2022-10-17T23:43:04.638Z,6.93
2022-10-17T23:45:36.111Z,7.00
2022-10-17T23:48:05.155Z,7.97
2022-10-17T23:50:31.873Z,7.90
2022-10-17T23:52:58.590Z,7.47
2022-10-17T23:55:25.226Z,7.67
2022-10-17T23:57:52.073Z,7.93
